Time;durP1;ratioP1;P1;durP2;ratioP2;P2;SDS_P1;SDS_P2;PMS_P1;PMS_P2;Temp;Humidity;BMP_temperature;BMP_pressure;BME280_temperature;BME280_humidity;BME280_pressure;Samples;Min_cycle;Max_cycle;Signal;HPM_P1;HPM_P2
2022/03/26 00:00:44;;;;;;;72.03;27.05;;;;;;;6.54;100.00;99722.06;4431866;32;20046;-73
2022/03/26 00:03:13;;;;;;;74.10;28.40;;;;;;;6.31;100.00;99684.19;4432219;32;20371;-74
2022/03/26 00:05:41;;;;;;;64.00;24.77;;;;;;;6.60;100.00;99730.28;4418079;32;20050;-74
2022/03/26 00:08:07;;;;;;;64.28;24.63;;;;;;;6.39;100.00;99697.34;4422542;32;20453;-76
2022/03/26 00:10:34;;;;;;;84.40;28.30;;;;;;;6.16;100.00;99666.50;4430056;32;20364;-74
2022/03/26 00:13:00;;;;;;;66.68;26.17;;;;;;;6.47;100.00;99720.41;4427952;32;20088;-74
2022/03/26 00:15:27;;;;;;;59.28;25.12;;;;;;;6.24;100.00;99686.03;4422377;32;20052;-74
2022/03/26 00:17:55;;;;;;;64.53;26.17;;;;;;;6.36;100.00;99701.25;4418523;32;20034;-74
2022/03/26 00:20:22;;;;;;;72.68;25.40;;;;;;;6.30;100.00;99703.94;4431850;32;20406;-74
2022/03/26 00:22:48;;;;;;;59.03;23.92;;;;;;;6.52;100.00;99707.22;4419429;32;20151;-74
2022/03/26 00:25:17;;;;;;;58.20;23.62;;;;;;;6.43;100.00;99703.94;4433378;32;20034;-74
2022/03/26 00:27:44;;;;;;;56.05;25.02;;;;;;;6.36;100.00;99706.59;4432918;32;20452;-76
2022/03/26 00:30:11;;;;;;;72.85;26.75;;;;;;;6.39;100.00;99702.72;4430107;32;20072;-77
2022/03/26 00:32:38;;;;;;;54.13;24.35;;;;;;;6.35;100.00;99712.16;4418882;32;20073;-75
2022/03/26 00:35:09;;;;;;;61.53;28.75;;;;;;;6.30;100.00;99693.22;4419405;32;20046;-75
2022/03/26 00:37:37;;;;;;;70.40;27.10;;;;;;;6.13;100.00;99699.00;4431239;32;20070;-75
2022/03/26 00:40:05;;;;;;;67.18;24.77;;;;;;;6.13;100.00;99693.66;4429531;32;20095;-75
2022/03/26 00:42:32;;;;;;;74.90;30.27;;;;;;;6.09;100.00;99687.03;4418692;32;20073;-75
2022/03/26 00:44:58;;;;;;;83.18;27.90;;;;;;;5.96;100.00;99681.66;4416310;32;20038;-75
2022/03/26 00:47:25;;;;;;;85.85;28.80;;;;;;;5.57;100.00;99638.62;4417300;32;20054;-75
2022/03/26 00:49:52;;;;;;;55.42;25.17;;;;;;;5.82;100.00;99684.31;4416684;32;20042;-75
2022/03/26 00:52:18;;;;;;;84.03;28.17;;;;;;;5.75;100.00;99680.00;4415172;32;20407;-75
2022/03/26 00:54:45;;;;;;;90.95;26.45;;;;;;;5.70;100.00;99667.22;4416512;32;20046;-75
2022/03/26 00:57:11;;;;;;;70.97;26.52;;;;;;;5.70;100.00;99680.59;4417594;32;20402;-75
2022/03/26 00:59:38;;;;;;;77.30;28.87;;;;;;;5.34;100.00;99630.94;4415466;32;20052;-75
2022/03/26 01:02:04;;;;;;;68.62;29.70;;;;;;;5.14;100.00;99603.38;4416949;32;20054;-75
2022/03/26 01:04:31;;;;;;;69.68;26.58;;;;;;;5.20;100.00;99629.25;4415748;32;20068;-76
2022/03/26 01:06:57;;;;;;;74.80;27.00;;;;;;;5.17;100.00;99625.16;4429773;32;20071;-74
2022/03/26 01:09:24;;;;;;;77.85;29.30;;;;;;;5.15;100.00;99605.03;4431500;32;20404;-74
2022/03/26 01:11:50;;;;;;;62.92;26.45;;;;;;;5.43;100.00;99666.34;4432154;32;20199;-74
2022/03/26 01:14:17;;;;;;;82.62;29.95;;;;;;;5.38;100.00;99648.25;4417080;32;20026;-74
2022/03/26 01:16:44;;;;;;;65.62;26.12;;;;;;;5.07;100.00;99614.88;4425923;32;20081;-76
2022/03/26 01:19:10;;;;;;;77.35;29.33;;;;;;;5.29;100.00;99660.13;4426592;32;20343;-75
2022/03/26 01:21:37;;;;;;;88.12;28.17;;;;;;;5.08;100.00;99616.50;4421743;32;20042;-75
2022/03/26 01:24:04;;;;;;;77.50;28.67;;;;;;;5.33;100.00;99653.38;4416315;32;20448;-75
2022/03/26 01:26:36;;;;;;;81.18;30.25;;;;;;;5.03;100.00;99608.25;4417103;32;20042;-75
2022/03/26 01:29:04;;;;;;;79.37;29.87;;;;;;;5.28;100.00;99653.13;4415667;32;20074;-75
2022/03/26 01:31:30;;;;;;;70.97;28.80;;;;;;;5.23;100.00;99650.22;4402822;32;20034;-74
2022/03/26 01:33:56;;;;;;;74.57;28.83;;;;;;;5.20;100.00;99656.81;4427367;32;20045;-75
2022/03/26 01:36:23;;;;;;;74.22;31.23;;;;;;;5.12;100.00;99637.44;4432209;32;20046;-77
2022/03/26 01:38:49;;;;;;;65.68;27.08;;;;;;;5.21;100.00;99646.94;4423363;32;20038;-74
2022/03/26 01:41:19;;;;;;;63.87;28.70;;;;;;;5.21;100.00;99647.75;4422032;32;20079;-75
2022/03/26 01:43:46;;;;;;;67.72;28.98;;;;;;;4.82;100.00;99605.69;4429379;32;20026;-75
2022/03/26 01:46:13;;;;;;;70.95;28.92;;;;;;;5.12;100.00;99653.47;4418310;32;20050;-75
2022/03/26 01:48:39;;;;;;;74.35;29.48;;;;;;;4.98;100.00;99634.72;4431891;32;20027;-73
2022/03/26 01:51:15;;;;;;;79.22;27.73;;;;;;;4.47;100.00;99560.41;4432201;32;20097;-74
2022/03/26 01:53:48;;;;;;;81.35;29.77;;;;;;;5.01;100.00;99653.03;4414963;32;20025;-75
2022/03/26 01:56:16;;;;;;;81.63;31.35;;;;;;;4.85;100.00;99635.50;4430845;32;20424;-75
2022/03/26 01:58:43;;;;;;;64.55;28.25;;;;;;;4.90;100.00;99640.25;4417628;32;20430;-74
2022/03/26 02:01:11;;;;;;;77.93;27.95;;;;;;;4.53;100.00;99594.25;4432054;32;20038;-74
2022/03/26 02:03:37;;;;;;;76.55;32.65;;;;;;;4.73;100.00;99629.88;4427953;32;20477;-76
2022/03/26 02:06:04;;;;;;;78.18;29.65;;;;;;;4.82;100.00;99637.72;4422835;32;20058;-74
2022/03/26 02:08:31;;;;;;;65.50;29.40;;;;;;;4.59;100.00;99601.47;4427410;32;20038;-75
2022/03/26 02:10:58;;;;;;;104.35;34.40;;;;;;;4.40;100.00;99588.84;4421385;32;20068;-75
2022/03/26 02:13:24;;;;;;;75.03;30.15;;;;;;;4.70;100.00;99640.94;4415475;32;20099;-74
2022/03/26 02:15:51;;;;;;;86.65;32.83;;;;;;;4.63;100.00;99645.44;4424897;32;20034;-75
2022/03/26 02:18:18;;;;;;;90.28;30.48;;;;;;;4.62;100.00;99630.44;4430410;32;20092;-75
2022/03/26 02:20:45;;;;;;;77.25;32.05;;;;;;;4.65;100.00;99632.69;4419843;32;20034;-72
2022/03/26 02:23:12;;;;;;;74.35;29.10;;;;;;;4.59;100.00;99627.34;4415153;32;20022;-72
2022/03/26 02:25:38;;;;;;;83.05;33.47;;;;;;;4.59;100.00;99630.00;4415712;32;20038;-75
2022/03/26 02:28:06;;;;;;;65.55;27.73;;;;;;;4.64;100.00;99639.06;4415502;32;20030;-74
2022/03/26 02:30:33;;;;;;;77.57;32.33;;;;;;;4.63;100.00;99634.75;4430556;32;20042;-73
2022/03/26 02:33:00;;;;;;;95.43;31.50;;;;;;;4.55;100.00;99621.56;4417336;32;20033;-73
2022/03/26 02:35:27;;;;;;;76.00;30.10;;;;;;;4.36;100.00;99586.56;4430454;32;20378;-73
2022/03/26 02:37:53;;;;;;;87.70;30.50;;;;;;;4.62;100.00;99627.75;4430616;32;20119;-73
2022/03/26 02:40:20;;;;;;;75.12;33.40;;;;;;;4.58;100.00;99628.34;4428398;32;20105;-74
2022/03/26 02:42:47;;;;;;;73.75;29.58;;;;;;;4.62;100.00;99638.44;4417174;32;20059;-75
2022/03/26 02:45:13;;;;;;;81.63;29.75;;;;;;;4.20;100.00;99554.91;4417722;32;20057;-75
2022/03/26 02:47:40;;;;;;;82.72;33.80;;;;;;;4.34;100.00;99577.13;4429073;32;20050;-75
2022/03/26 02:50:09;;;;;;;72.85;29.30;;;;;;;4.42;100.00;99578.81;4411538;32;20030;-75
2022/03/26 02:52:41;;;;;;;82.50;30.08;;;;;;;4.71;100.00;99615.91;4430174;32;20226;-76
2022/03/26 02:55:09;;;;;;;69.12;28.85;;;;;;;4.70;100.00;99616.94;4430065;32;20410;-75
2022/03/26 02:57:35;;;;;;;60.12;25.17;;;;;;;4.72;100.00;99606.06;4431064;32;20026;-76
2022/03/26 03:00:03;;;;;;;63.00;29.12;;;;;;;4.66;100.00;99605.03;4423241;32;20068;-76
2022/03/26 03:02:30;;;;;;;74.57;29.55;;;;;;;4.57;100.00;99571.53;4400238;32;20026;-77
2022/03/26 03:04:56;;;;;;;73.43;31.23;;;;;;;4.71;100.00;99594.56;4414675;32;20403;-76
2022/03/26 03:07:23;;;;;;;74.18;28.95;;;;;;;4.64;100.00;99571.56;4414783;32;20116;-76
2022/03/26 03:09:49;;;;;;;54.97;21.98;;;;;;;4.66;100.00;99573.00;4414479;32;20115;-76
2022/03/26 03:12:16;;;;;;;75.60;29.33;;;;;;;4.75;100.00;99578.16;4415846;32;20350;-76
2022/03/26 03:14:43;;;;;;;67.75;28.40;;;;;;;4.68;100.00;99570.97;4430132;32;20441;-77
2022/03/26 03:17:09;;;;;;;68.80;28.52;;;;;;;4.72;100.00;99564.22;4429164;32;20038;-76
2022/03/26 03:19:36;;;;;;;69.93;28.23;;;;;;;4.69;100.00;99564.63;4430081;32;20360;-77
2022/03/26 03:22:03;;;;;;;75.68;29.65;;;;;;;4.69;100.00;99564.63;4430772;32;20178;-77
2022/03/26 03:24:30;;;;;;;64.72;28.80;;;;;;;4.65;100.00;99552.69;4430188;32;20402;-77
2022/03/26 03:26:57;;;;;;;75.93;27.08;;;;;;;4.48;100.00;99538.03;4429235;32;20026;-76
2022/03/26 03:29:24;;;;;;;70.62;28.00;;;;;;;4.35;100.00;99520.94;4416777;32;20085;-76
2022/03/26 03:31:50;;;;;;;66.40;27.52;;;;;;;4.63;100.00;99544.06;4430934;32;20105;-76
2022/03/26 03:34:17;;;;;;;65.10;27.77;;;;;;;4.30;100.00;99507.38;4430619;32;20022;-76
2022/03/26 03:36:43;;;;;;;71.68;27.42;;;;;;;4.07;100.00;99466.84;4432275;32;20092;-75
2022/03/26 03:39:10;;;;;;;67.28;26.90;;;;;;;4.44;100.00;99534.13;4430656;32;20038;-76
2022/03/26 03:41:36;;;;;;;72.35;27.05;;;;;;;4.67;100.00;99553.28;4420084;32;20265;-75
2022/03/26 03:44:03;;;;;;;70.93;27.10;;;;;;;4.24;100.00;99512.69;4434005;32;20154;-76
2022/03/26 03:46:30;;;;;;;58.17;26.98;;;;;;;4.50;100.00;99538.66;4433201;32;20068;-75
2022/03/26 03:48:57;;;;;;;66.43;25.10;;;;;;;4.57;100.00;99544.03;4433482;32;20022;-76
2022/03/26 03:51:24;;;;;;;58.50;23.80;;;;;;;4.25;100.00;99493.00;4431755;32;20089;-76
2022/03/26 03:53:51;;;;;;;58.33;24.90;;;;;;;4.54;100.00;99539.91;4433395;32;20067;-75
2022/03/26 03:56:17;;;;;;;69.70;25.75;;;;;;;4.53;100.00;99532.91;4434021;32;20371;-74
2022/03/26 03:58:44;;;;;;;62.42;27.15;;;;;;;4.28;100.00;99487.28;4433707;32;20046;-74
2022/03/26 04:01:10;;;;;;;60.03;24.83;;;;;;;4.60;100.00;99536.44;4433253;32;20055;-75
2022/03/26 04:03:37;;;;;;;55.25;22.87;;;;;;;4.62;100.00;99537.06;4431165;32;20041;-74
2022/03/26 04:06:05;;;;;;;58.08;23.92;;;;;;;4.29;100.00;99484.41;4433565;32;20916;-75
2022/03/26 04:08:32;;;;;;;62.13;24.08;;;;;;;4.56;100.00;99527.19;4431584;32;20075;-75
2022/03/26 04:10:58;;;;;;;56.30;21.98;;;;;;;4.64;100.00;99545.72;4423905;32;20083;-75
2022/03/26 04:13:25;;;;;;;60.20;24.50;;;;;;;4.57;100.00;99528.03;4411840;32;20440;-76
2022/03/26 04:15:51;;;;;;;47.62;21.27;;;;;;;4.66;100.00;99527.66;4432609;32;20060;-75
2022/03/26 04:18:17;;;;;;;52.35;22.40;;;;;;;4.60;100.00;99528.44;4432874;32;20334;-75
2022/03/26 04:20:44;;;;;;;52.58;24.55;;;;;;;4.35;100.00;99486.28;4419224;32;20434;-75
2022/03/26 04:23:10;;;;;;;62.13;25.00;;;;;;;4.64;100.00;99535.06;4433252;32;20056;-75
2022/03/26 04:25:38;;;;;;;49.83;21.55;;;;;;;4.65;100.00;99525.19;4419396;32;20038;-76
2022/03/26 04:28:04;;;;;;;53.70;23.52;;;;;;;4.66;100.00;99525.00;4431306;32;20064;-75
2022/03/26 04:30:31;;;;;;;54.03;22.27;;;;;;;4.68;100.00;99530.94;4416811;32;20077;-76
2022/03/26 04:32:57;;;;;;;47.70;21.40;;;;;;;4.37;100.00;99486.91;4425598;32;20382;-75
2022/03/26 04:35:24;;;;;;;56.53;23.52;;;;;;;4.70;100.00;99544.91;4418003;32;20467;-75
2022/03/26 04:37:55;;;;;;;53.53;22.02;;;;;;;4.33;100.00;99477.66;4431628;32;20030;-76
2022/03/26 04:40:23;;;;;;;47.78;22.42;;;;;;;4.68;100.00;99544.28;4432719;32;20046;-75
2022/03/26 04:42:50;;;;;;;62.13;25.48;;;;;;;4.36;100.00;99485.25;4419098;32;20437;-75
2022/03/26 04:45:16;;;;;;;53.75;23.20;;;;;;;4.37;100.00;99481.59;4417507;32;20063;-76
2022/03/26 04:47:43;;;;;;;48.92;21.85;;;;;;;4.29;100.00;99468.44;4416229;32;20077;-75
2022/03/26 04:50:11;;;;;;;60.83;22.83;;;;;;;4.62;100.00;99529.06;4432126;32;20083;-75
2022/03/26 04:52:38;;;;;;;64.85;21.67;;;;;;;4.32;100.00;99475.19;4431248;32;20067;-76
2022/03/26 04:55:10;;;;;;;56.10;21.83;;;;;;;4.58;100.00;99509.16;4432837;32;20047;-76
2022/03/26 04:57:41;;;;;;;60.00;23.27;;;;;;;4.51;100.00;99508.31;4431306;32;20145;-75
2022/03/26 05:00:10;;;;;;;65.75;24.12;;;;;;;4.63;100.00;99522.72;4431990;32;20072;-76
2022/03/26 05:02:44;;;;;;;43.55;17.65;;;;;;;4.61;100.00;99523.94;4432286;32;20147;-74
2022/03/26 05:05:12;;;;;;;54.92;22.75;;;;;;;4.62;100.00;99521.06;4418399;32;20343;-75
2022/03/26 05:07:45;;;;;;;46.95;21.42;;;;;;;4.57;100.00;99504.84;4430976;32;20341;-75
2022/03/26 05:10:16;;;;;;;48.03;21.23;;;;;;;4.59;100.00;99518.78;4430350;32;20414;-75
2022/03/26 05:12:44;;;;;;;53.53;21.37;;;;;;;4.64;100.00;99515.53;4432361;32;20038;-73
2022/03/26 05:15:11;;;;;;;56.37;23.95;;;;;;;4.56;100.00;99516.53;4418521;32;20025;-73
2022/03/26 05:17:38;;;;;;;52.62;22.27;;;;;;;4.73;100.00;99517.00;4430377;32;20424;-72
2022/03/26 05:20:06;;;;;;;45.00;21.12;;;;;;;4.76;100.00;99515.81;4429359;32;20064;-75
2022/03/26 05:22:32;;;;;;;59.67;21.58;;;;;;;4.73;100.00;99523.16;4431104;32;20066;-77
2022/03/26 05:24:59;;;;;;;48.75;19.52;;;;;;;4.72;100.00;99504.69;4432376;32;20038;-73
2022/03/26 05:27:25;;;;;;;56.65;23.12;;;;;;;4.53;100.00;99466.25;4431273;32;20290;-73
2022/03/26 05:29:52;;;;;;;45.47;19.20;;;;;;;4.90;100.00;99517.50;4431720;32;20030;-74
2022/03/26 05:32:19;;;;;;;41.42;18.75;;;;;;;4.94;100.00;99507.22;4417243;32;20401;-74
2022/03/26 05:34:45;;;;;;;47.45;20.15;;;;;;;5.06;100.00;99511.78;4432261;32;20399;-73
2022/03/26 05:37:12;;;;;;;53.25;20.92;;;;;;;4.83;100.00;99457.94;4431793;32;20161;-73
2022/03/26 05:39:39;;;;;;;41.22;19.37;;;;;;;5.18;100.00;99513.84;4417172;32;20353;-73
2022/03/26 05:42:06;;;;;;;50.53;21.30;;;;;;;5.25;100.00;99509.38;4416714;32;20026;-74
2022/03/26 05:44:32;;;;;;;47.90;21.23;;;;;;;5.16;100.00;99489.22;4429088;32;20030;-74
2022/03/26 05:47:00;;;;;;;56.97;22.92;;;;;;;5.38;100.00;99506.69;4418984;32;20403;-73
2022/03/26 05:49:27;;;;;;;54.30;22.67;;;;;;;5.01;100.00;99439.50;4416530;32;20183;-73
2022/03/26 05:51:53;;;;;;;42.90;17.33;;;;;;;5.38;100.00;99514.72;4432633;32;20046;-73
2022/03/26 05:54:20;;;;;;;50.92;21.90;;;;;;;5.08;100.00;99455.53;4418087;32;20431;-84
2022/03/26 05:56:51;;;;;;;44.53;19.25;;;;;;;5.15;100.00;99461.69;4423171;32;20124;-77
2022/03/26 05:59:23;;;;;;;52.40;20.75;;;;;;;5.17;100.00;99450.78;4436875;32;20105;-76
2022/03/26 06:01:51;;;;;;;40.47;16.67;;;;;;;5.50;100.00;99492.72;4418900;32;20042;-76
2022/03/26 06:04:17;;;;;;;51.35;18.83;;;;;;;5.20;100.00;99447.72;4415739;32;20030;-79
2022/03/26 06:06:44;;;;;;;42.75;18.45;;;;;;;5.58;100.00;99503.22;4417578;32;20030;-76
2022/03/26 06:09:10;;;;;;;48.72;21.05;;;;;;;5.29;100.00;99451.84;4426278;32;20050;-76
2022/03/26 06:11:37;;;;;;;52.72;22.15;;;;;;;5.61;100.00;99492.13;4427148;32;20432;-75
2022/03/26 06:14:04;;;;;;;45.47;20.90;;;;;;;5.62;100.00;99509.78;4415197;32;20119;-76
2022/03/26 06:16:31;;;;;;;37.40;15.50;;;;;;;5.40;100.00;99453.91;4413489;32;20066;-79
2022/03/26 06:18:58;;;;;;;49.55;18.92;;;;;;;5.75;100.00;99492.94;4410750;32;20056;-75
2022/03/26 06:21:24;;;;;;;48.97;21.95;;;;;;;5.82;100.00;99494.59;4417844;32;20096;-76
2022/03/26 06:23:51;;;;;;;44.38;19.42;;;;;;;5.93;100.00;99486.94;4400719;32;20382;-76
2022/03/26 06:26:17;;;;;;;48.50;19.65;;;;;;;5.94;100.00;99481.41;4402782;32;20031;-76
2022/03/26 06:28:44;;;;;;;58.35;22.08;;;;;;;6.01;100.00;99486.75;4412372;32;20034;-76
2022/03/26 06:31:11;;;;;;;49.58;20.27;;;;;;;6.09;100.00;99497.22;4416259;32;20050;-79
2022/03/26 06:33:37;;;;;;;46.37;21.02;;;;;;;6.17;100.00;99486.34;4422921;32;20075;-84
2022/03/26 06:36:04;;;;;;;49.78;22.37;;;;;;;6.18;100.00;99477.25;4418211;32;20056;-76
2022/03/26 06:38:32;;;;;;;48.72;19.77;;;;;;;6.37;100.00;99490.78;4430392;32;20063;-77
2022/03/26 06:40:59;;;;;;;39.47;17.42;;;;;;;6.17;100.00;99427.50;4415714;32;20042;-75
2022/03/26 06:43:25;;;;;;;50.15;19.87;;;;;;;6.44;100.00;99456.81;4417261;32;20021;-75
2022/03/26 06:45:52;;;;;;;40.65;19.00;;;;;;;6.71;100.00;99480.78;4416669;32;20089;-76
2022/03/26 06:48:19;;;;;;;38.03;16.50;;;;;;;6.51;100.00;99438.88;4430180;32;20041;-76
2022/03/26 06:50:45;;;;;;;45.78;19.33;;;;;;;6.96;100.00;99472.00;4414471;32;20042;-76
2022/03/26 06:53:12;;;;;;;36.72;16.67;;;;;;;6.75;100.00;99407.06;4416170;32;20082;-76
2022/03/26 06:55:38;;;;;;;32.65;16.08;;;;;;;7.30;100.00;99473.41;4431177;32;20041;-75
2022/03/26 06:58:05;;;;;;;39.72;17.30;;;;;;;7.21;100.00;99442.56;4429800;32;20070;-75
2022/03/26 07:00:31;;;;;;;29.58;13.82;;;;;;;7.38;100.00;99432.16;4426163;32;20046;-76
2022/03/26 07:02:58;;;;;;;29.37;14.13;;;;;;;7.71;100.00;99453.28;4413999;32;20072;-77
2022/03/26 07:05:24;;;;;;;38.00;14.60;;;;;;;7.97;100.00;99462.13;4401163;32;20104;-75
2022/03/26 07:07:51;;;;;;;30.55;14.38;;;;;;;8.06;100.00;99468.00;4399741;32;20367;-75
2022/03/26 07:10:17;;;;;;;27.80;13.77;;;;;;;8.08;100.00;99452.53;4414693;32;20068;-75
2022/03/26 07:12:44;;;;;;;37.05;14.20;;;;;;;8.31;100.00;99457.19;4414034;32;20030;-75
2022/03/26 07:15:10;;;;;;;32.00;12.13;;;;;;;8.46;100.00;99454.19;4425472;32;20054;-80
2022/03/26 07:17:39;;;;;;;36.78;14.10;;;;;;;8.59;100.00;99480.03;4420183;32;20035;-75
2022/03/26 07:20:06;;;;;;;34.97;13.88;;;;;;;8.48;100.00;99425.25;4414497;32;20043;-76
2022/03/26 07:22:34;;;;;;;38.17;13.60;;;;;;;8.51;100.00;99419.44;4419740;32;20101;-76
2022/03/26 07:25:04;;;;;;;34.35;14.27;;;;;;;8.91;100.00;99473.41;4413400;32;20165;-73
2022/03/26 07:27:31;;;;;;;31.15;12.45;;;;;;;8.90;100.00;99444.09;4415162;32;20328;-72
2022/03/26 07:29:58;;;;;;;33.72;14.38;;;;;;;8.95;100.00;99463.03;4415651;32;20038;-71
2022/03/26 07:32:25;;;;;;;32.72;13.40;;;;;;;8.82;100.00;99455.16;4415655;32;20374;-71
2022/03/26 07:34:52;;;;;;;37.22;11.43;;;;;;;8.71;100.00;99422.66;4429150;32;20382;-74
2022/03/26 07:37:19;;;;;;;26.40;12.40;;;;;;;9.13;100.00;99480.16;4429606;32;20104;-71
2022/03/26 07:39:46;;;;;;;34.03;14.00;;;;;;;9.14;100.00;99471.03;4430890;32;20046;-71
2022/03/26 07:42:12;;;;;;;19.77;10.57;;;;;;;9.26;100.00;99482.63;4429396;32;20034;-71
2022/03/26 07:44:39;;;;;;;29.08;12.37;;;;;;;9.05;100.00;99424.88;4412417;32;20061;-71
2022/03/26 07:47:06;;;;;;;25.95;11.60;;;;;;;9.19;100.00;99434.38;4424875;32;20038;-70
2022/03/26 07:49:33;;;;;;;23.83;8.35;;;;;;;9.48;100.00;99482.06;4423248;32;20169;-72
2022/03/26 07:51:59;;;;;;;26.67;11.32;;;;;;;9.29;100.00;99436.50;4430825;32;20363;-74
2022/03/26 07:54:26;;;;;;;31.95;11.48;;;;;;;9.69;100.00;99457.31;4416058;32;20033;-72
2022/03/26 07:56:52;;;;;;;38.13;10.93;;;;;;;9.53;100.00;99425.78;4408268;32;20031;-71
2022/03/26 07:59:19;;;;;;;27.92;10.90;;;;;;;9.95;100.00;99460.59;4412737;32;20042;-74
2022/03/26 08:01:45;;;;;;;21.67;9.95;;;;;;;9.92;100.00;99458.38;4402597;32;20081;-76
2022/03/26 08:04:14;;;;;;;22.10;9.93;;;;;;;9.79;100.00;99409.13;4418128;32;20050;-72
2022/03/26 08:06:40;;;;;;;24.85;10.63;;;;;;;10.13;100.00;99484.69;4425371;32;20065;-73
2022/03/26 08:09:06;;;;;;;31.50;11.68;;;;;;;9.84;100.00;99388.81;4410932;32;20250;-73
2022/03/26 08:11:34;;;;;;;26.05;8.73;;;;;;;10.07;100.00;99414.84;4404379;32;20405;-73
2022/03/26 08:14:06;;;;;;;21.45;10.15;;;;;;;10.24;100.00;99458.00;4427678;32;20088;-73
2022/03/26 08:16:33;;;;;;;25.85;9.70;;;;;;;10.34;100.00;99452.87;4412537;32;20043;-73
2022/03/26 08:19:00;;;;;;;21.92;9.52;;;;;;;10.36;100.00;99426.53;4412296;32;20053;-73
2022/03/26 08:21:26;;;;;;;24.58;10.77;;;;;;;10.39;100.00;99438.66;4426627;32;20054;-74
2022/03/26 08:23:54;;;;;;;32.00;10.40;;;;;;;10.25;100.00;99392.34;4427836;32;20158;-73
2022/03/26 08:26:26;;;;;;;22.45;9.82;;;;;;;10.35;100.00;99416.78;4415433;32;20042;-73
2022/03/26 08:28:56;;;;;;;18.90;9.45;;;;;;;10.60;100.00;99439.91;4418476;32;20055;-74
2022/03/26 08:31:26;;;;;;;22.52;9.55;;;;;;;10.53;100.00;99435.47;4409103;32;20108;-75
2022/03/26 08:33:54;;;;;;;24.25;8.63;;;;;;;10.63;100.00;99420.59;4428160;32;20050;-74
2022/03/26 08:36:20;;;;;;;20.73;9.57;;;;;;;10.59;100.00;99428.31;4426791;32;20442;-73
2022/03/26 08:38:48;;;;;;;19.20;8.32;;;;;;;10.64;100.00;99435.66;4424495;32;20339;-75
2022/03/26 08:41:18;;;;;;;28.48;8.32;;;;;;;10.67;100.00;99432.50;4415764;32;20117;-76
2022/03/26 08:43:44;;;;;;;22.62;9.98;;;;;;;10.70;100.00;99486.69;4409361;32;20178;-74
2022/03/26 08:46:11;;;;;;;35.65;10.27;;;;;;;10.63;100.00;99440.25;4402713;32;20038;-74
2022/03/26 08:48:37;;;;;;;21.05;9.65;;;;;;;10.72;100.00;99437.97;4415310;32;20033;-73
2022/03/26 08:51:04;;;;;;;21.52;9.02;;;;;;;10.64;100.00;99447.28;4431127;32;20030;-73
2022/03/26 08:53:32;;;;;;;22.20;8.80;;;;;;;10.41;100.00;99409.66;4413358;32;20375;-75
2022/03/26 08:56:00;;;;;;;19.35;9.57;;;;;;;10.76;100.00;99452.59;4404810;32;20790;-74
2022/03/26 08:58:27;;;;;;;17.05;8.40;;;;;;;10.83;100.00;99439.81;4405445;32;20072;-73
2022/03/26 09:00:53;;;;;;;24.70;9.25;;;;;;;10.63;100.00;99388.28;4402577;32;20451;-73
2022/03/26 09:03:21;;;;;;;25.88;8.25;;;;;;;10.96;100.00;99432.47;4403724;32;20031;-74
2022/03/26 09:05:49;;;;;;;30.73;10.63;;;;;;;11.03;100.00;99420.50;4404394;32;20065;-74
2022/03/26 09:08:16;;;;;;;17.37;8.15;;;;;;;11.26;100.00;99421.41;4414963;32;20058;-73
2022/03/26 09:10:43;;;;;;;27.20;9.05;;;;;;;11.26;100.00;99395.28;4418256;32;20033;-73
2022/03/26 09:13:10;;;;;;;28.58;7.70;;;;;;;11.40;100.00;99424.59;4417525;32;20077;-74
2022/03/26 09:15:37;;;;;;;15.95;5.30;;;;;;;11.40;100.00;99441.59;4404117;32;20043;-74
2022/03/26 09:18:05;;;;;;;20.80;6.25;;;;;;;11.44;100.00;99450.03;4405540;32;20071;-74
2022/03/26 09:20:32;;;;;;;22.23;7.95;;;;;;;11.50;100.00;99422.06;4408226;32;20518;-74
2022/03/26 09:22:59;;;;;;;21.55;7.78;;;;;;;11.57;100.00;99411.94;4403614;32;20073;-73
2022/03/26 09:25:26;;;;;;;25.25;6.07;;;;;;;11.56;100.00;99404.88;4412487;32;20389;-73
2022/03/26 09:27:52;;;;;;;16.35;7.53;;;;;;;11.25;100.00;99392.84;4405548;32;20038;-73
2022/03/26 09:30:19;;;;;;;11.93;6.82;;;;;;;11.27;100.00;99380.72;4417420;32;20046;-74
2022/03/26 09:32:45;;;;;;;20.42;8.02;;;;;;;11.73;100.00;99404.06;4423715;32;20091;-74
2022/03/26 09:35:13;;;;;;;14.70;6.93;;;;;;;11.87;100.00;99394.56;4416230;32;20445;-74
2022/03/26 09:37:40;;;;;;;22.17;7.07;;;;;;;11.94;100.00;99438.38;4429089;32;20428;-74
2022/03/26 09:40:09;;;;;;;13.32;6.35;;;;;;;11.66;100.00;99403.41;4429925;32;20045;-75
2022/03/26 09:42:38;;;;;;;21.92;6.43;;;;;;;11.90;100.00;99445.31;4416461;32;20038;-73
2022/03/26 09:45:06;;;;;;;22.58;7.20;;;;;;;12.13;100.00;99457.00;4431104;32;20037;-73
2022/03/26 09:47:39;;;;;;;21.83;7.40;;;;;;;12.08;100.00;99373.28;4417223;32;20056;-74
2022/03/26 09:50:09;;;;;;;12.93;6.05;;;;;;;12.43;100.00;99417.94;4428498;32;20067;-75
2022/03/26 09:52:37;;;;;;;12.45;6.68;;;;;;;12.19;100.00;99399.31;4405497;32;20071;-73
2022/03/26 09:55:04;;;;;;;17.20;8.07;;;;;;;12.21;100.00;99389.06;4410867;32;20368;-73
2022/03/26 09:57:31;;;;;;;19.10;7.03;;;;;;;12.37;100.00;99397.38;4412514;32;20383;-74
2022/03/26 09:59:58;;;;;;;23.17;6.93;;;;;;;11.80;100.00;99310.28;4400348;32;20026;-74
2022/03/26 10:02:25;;;;;;;17.85;6.20;;;;;;;12.49;100.00;99392.63;4399350;32;20127;-76
2022/03/26 10:04:52;;;;;;;17.80;6.47;;;;;;;12.70;100.00;99402.59;4407006;32;20035;-74
2022/03/26 10:07:29;;;;;;;12.63;6.55;;;;;;;12.80;100.00;99401.06;4406510;32;20253;-74
2022/03/26 10:09:56;;;;;;;26.10;8.88;;;;;;;12.63;100.00;99404.66;4391105;32;20076;-74
2022/03/26 10:12:27;;;;;;;13.57;5.62;;;;;;;12.70;100.00;99386.38;4411958;32;20050;-73
2022/03/26 10:14:58;;;;;;;20.40;8.73;;;;;;;12.49;100.00;99389.91;4399087;32;20048;-74
2022/03/26 10:17:31;;;;;;;18.90;7.70;;;;;;;12.45;100.00;99334.81;4399568;32;20054;-74
2022/03/26 10:20:00;;;;;;;22.62;7.57;;;;;;;12.99;100.00;99378.00;4399827;32;20052;-73
2022/03/26 10:22:29;;;;;;;13.35;7.75;;;;;;;13.03;100.00;99373.69;4410726;32;20127;-74
2022/03/26 10:24:57;;;;;;;16.80;6.40;;;;;;;13.31;100.00;99396.09;4399864;32;20077;-74
2022/03/26 10:27:24;;;;;;;18.23;5.32;;;;;;;13.58;99.78;99414.19;4406277;32;20067;-74
2022/03/26 10:29:55;;;;;;;21.42;5.75;;;;;;;13.73;93.92;99403.44;4410552;32;20042;-75
2022/03/26 10:32:39;;;;;;;22.13;5.63;;;;;;;13.55;92.72;99355.19;4419639;32;20042;-74
2022/03/26 10:35:07;;;;;;;16.15;6.15;;;;;;;13.41;90.92;99315.06;4409357;32;20042;-73
2022/03/26 10:37:43;;;;;;;26.42;5.32;;;;;;;13.87;88.58;99403.00;4426844;32;20085;-73
2022/03/26 10:40:34;;;;;;;35.20;5.28;;;;;;;13.70;88.25;99328.19;4414536;32;20409;-75
2022/03/26 10:43:10;;;;;;;15.40;4.95;;;;;;;13.94;89.04;99387.31;4420940;32;20030;-74
2022/03/26 10:46:00;;;;;;;15.85;5.10;;;;;;;14.03;88.26;99391.16;4423399;32;20390;-72
2022/03/26 10:48:28;;;;;;;12.30;6.72;;;;;;;14.06;87.50;99403.38;4414260;32;20034;-74
2022/03/26 10:51:15;;;;;;;13.02;4.47;;;;;;;13.59;89.06;99329.22;4407413;32;20095;-73
2022/03/26 10:53:43;;;;;;;13.38;5.62;;;;;;;13.65;89.08;99385.00;4421523;32;20050;-73
2022/03/26 10:56:12;;;;;;;12.73;4.85;;;;;;;13.69;88.85;99406.94;4430962;32;20143;-74
2022/03/26 10:58:40;;;;;;;16.52;4.95;;;;;;;13.21;88.45;99321.13;4430504;32;20046;-73
2022/03/26 11:01:07;;;;;;;14.93;4.43;;;;;;;13.65;89.21;99384.19;4424818;32;20068;-74
2022/03/26 11:03:35;;;;;;;20.60;6.07;;;;;;;13.33;89.56;99339.88;4421864;32;20034;-72
2022/03/26 11:06:06;;;;;;;12.00;5.07;;;;;;;13.40;91.33;99364.84;4423640;32;20110;-73
2022/03/26 11:08:34;;;;;;;12.60;4.78;;;;;;;13.09;93.08;99367.25;4410816;32;20054;-74
2022/03/26 11:11:10;;;;;;;13.93;4.82;;;;;;;13.22;92.70;99419.28;4408683;32;20029;-73
2022/03/26 11:13:43;;;;;;;24.95;4.60;;;;;;;13.21;92.94;99367.09;4413672;32;20718;-73
2022/03/26 11:16:41;;;;;;;11.82;5.03;;;;;;;13.24;92.23;99417.97;4417653;32;20334;-73
2022/03/26 11:19:07;;;;;;;12.90;4.70;;;;;;;13.17;93.83;99360.56;4414596;32;20041;-73